sensor_id;sensor_type;location;lat;lon;timestamp;P1;durP1;ratioP1;P2;durP2;ratioP2
12151;SDS011;6139;51.274;7.128;2023-04-03T00:00:35;10.50;;;7.97;;
12151;SDS011;6139;51.274;7.128;2023-04-03T00:01:37;10.07;;;7.47;;
12151;SDS011;6139;51.274;7.128;2023-04-03T00:02:41;9.13;;;6.20;;
12151;SDS011;6139;51.274;7.128;2023-04-03T00:03:43;9.50;;;6.60;;
12151;SDS011;6139;51.274;7.128;2023-04-03T00:04:44;6.67;;;5.73;;
12151;SDS011;6139;51.274;7.128;2023-04-03T00:05:47;6.63;;;5.60;;
12151;SDS011;6139;51.274;7.128;2023-04-03T00:06:48;7.20;;;5.67;;
12151;SDS011;6139;51.274;7.128;2023-04-03T00:07:50;7.87;;;5.77;;
12151;SDS011;6139;51.274;7.128;2023-04-03T00:08:51;6.13;;;5.07;;
12151;SDS011;6139;51.274;7.128;2023-04-03T00:09:54;7.23;;;4.97;;
12151;SDS011;6139;51.274;7.128;2023-04-03T00:10:55;6.43;;;4.70;;
12151;SDS011;6139;51.274;7.128;2023-04-03T00:11:57;6.93;;;4.80;;
12151;SDS011;6139;51.274;7.128;2023-04-03T00:12:58;5.30;;;4.47;;
12151;SDS011;6139;51.274;7.128;2023-04-03T00:13:59;5.13;;;4.60;;
12151;SDS011;6139;51.274;7.128;2023-04-03T00:15:00;5.00;;;4.50;;
12151;SDS011;6139;51.274;7.128;2023-04-03T00:16:03;5.63;;;4.20;;
12151;SDS011;6139;51.274;7.128;2023-04-03T00:17:04;7.07;;;4.87;;
12151;SDS011;6139;51.274;7.128;2023-04-03T00:18:06;4.43;;;4.00;;
12151;SDS011;6139;51.274;7.128;2023-04-03T00:19:08;5.73;;;4.30;;
12151;SDS011;6139;51.274;7.128;2023-04-03T00:20:11;4.53;;;4.13;;
12151;SDS011;6139;51.274;7.128;2023-04-03T00:21:14;5.43;;;4.27;;
12151;SDS011;6139;51.274;7.128;2023-04-03T00:22:16;5.43;;;3.80;;
12151;SDS011;6139;51.274;7.128;2023-04-03T00:23:17;4.27;;;3.47;;
12151;SDS011;6139;51.274;7.128;2023-04-03T00:24:19;7.93;;;4.47;;
12151;SDS011;6139;51.274;7.128;2023-04-03T00:25:20;4.73;;;4.30;;
12151;SDS011;6139;51.274;7.128;2023-04-03T00:26:22;9.03;;;4.97;;
12151;SDS011;6139;51.274;7.128;2023-04-03T00:27:23;6.30;;;4.50;;
12151;SDS011;6139;51.274;7.128;2023-04-03T00:28:26;4.60;;;4.20;;
12151;SDS011;6139;51.274;7.128;2023-04-03T00:29:27;6.53;;;4.47;;
12151;SDS011;6139;51.274;7.128;2023-04-03T00:30:29;6.63;;;4.77;;
12151;SDS011;6139;51.274;7.128;2023-04-03T00:31:30;5.93;;;5.33;;
12151;SDS011;6139;51.274;7.128;2023-04-03T00:32:32;6.60;;;5.30;;
12151;SDS011;6139;51.274;7.128;2023-04-03T00:33:33;6.50;;;5.90;;
12151;SDS011;6139;51.274;7.128;2023-04-03T00:34:35;6.07;;;5.47;;
12151;SDS011;6139;51.274;7.128;2023-04-03T00:35:36;7.47;;;5.67;;
12151;SDS011;6139;51.274;7.128;2023-04-03T00:36:39;7.20;;;5.80;;
12151;SDS011;6139;51.274;7.128;2023-04-03T00:37:40;6.70;;;6.10;;
12151;SDS011;6139;51.274;7.128;2023-04-03T00:38:43;6.83;;;5.90;;
12151;SDS011;6139;51.274;7.128;2023-04-03T00:39:45;8.50;;;6.47;;
12151;SDS011;6139;51.274;7.128;2023-04-03T00:40:47;7.10;;;6.40;;
12151;SDS011;6139;51.274;7.128;2023-04-03T00:41:49;7.37;;;6.57;;
12151;SDS011;6139;51.274;7.128;2023-04-03T00:42:51;8.73;;;6.27;;
12151;SDS011;6139;51.274;7.128;2023-04-03T00:43:56;8.10;;;6.70;;
12151;SDS011;6139;51.274;7.128;2023-04-03T00:46:42;9.63;;;6.90;;
12151;SDS011;6139;51.274;7.128;2023-04-03T00:47:43;8.57;;;7.20;;
12151;SDS011;6139;51.274;7.128;2023-04-03T00:48:46;8.37;;;7.47;;
12151;SDS011;6139;51.274;7.128;2023-04-03T00:49:49;9.13;;;7.30;;
12151;SDS011;6139;51.274;7.128;2023-04-03T00:50:52;8.13;;;7.33;;
12151;SDS011;6139;51.274;7.128;2023-04-03T00:51:56;8.57;;;7.67;;
12151;SDS011;6139;51.274;7.128;2023-04-03T00:52:58;10.17;;;8.00;;
12151;SDS011;6139;51.274;7.128;2023-04-03T00:54:02;8.23;;;7.43;;
12151;SDS011;6139;51.274;7.128;2023-04-03T00:55:07;8.97;;;8.03;;
12151;SDS011;6139;51.274;7.128;2023-04-03T00:56:11;8.53;;;7.63;;
12151;SDS011;6139;51.274;7.128;2023-04-03T00:57:15;8.63;;;7.70;;
12151;SDS011;6139;51.274;7.128;2023-04-03T00:58:18;10.67;;;8.27;;
12151;SDS011;6139;51.274;7.128;2023-04-03T00:59:21;9.53;;;8.53;;
12151;SDS011;6139;51.274;7.128;2023-04-03T01:00:27;9.03;;;8.03;;
12151;SDS011;6139;51.274;7.128;2023-04-03T01:01:29;9.80;;;8.30;;
12151;SDS011;6139;51.274;7.128;2023-04-03T01:02:31;10.73;;;7.70;;
12151;SDS011;6139;51.274;7.128;2023-04-03T01:03:33;9.80;;;8.83;;
12151;SDS011;6139;51.274;7.128;2023-04-03T01:04:38;9.10;;;8.03;;
12151;SDS011;6139;51.274;7.128;2023-04-03T01:05:40;10.03;;;8.50;;
12151;SDS011;6139;51.274;7.128;2023-04-03T01:06:42;7.83;;;7.03;;
12151;SDS011;6139;51.274;7.128;2023-04-03T01:07:45;9.60;;;7.83;;
12151;SDS011;6139;51.274;7.128;2023-04-03T01:08:48;8.47;;;6.87;;
12151;SDS011;6139;51.274;7.128;2023-04-03T01:09:51;9.17;;;7.57;;
12151;SDS011;6139;51.274;7.128;2023-04-03T01:10:57;7.50;;;6.60;;
12151;SDS011;6139;51.274;7.128;2023-04-03T01:12:12;8.20;;;6.93;;
12151;SDS011;6139;51.274;7.128;2023-04-03T01:13:18;7.40;;;6.67;;
12151;SDS011;6139;51.274;7.128;2023-04-03T01:14:24;9.80;;;7.27;;
12151;SDS011;6139;51.274;7.128;2023-04-03T01:15:26;9.37;;;7.33;;
12151;SDS011;6139;51.274;7.128;2023-04-03T01:16:30;7.10;;;6.40;;
12151;SDS011;6139;51.274;7.128;2023-04-03T01:17:34;8.67;;;7.17;;
12151;SDS011;6139;51.274;7.128;2023-04-03T01:18:38;8.87;;;6.67;;
12151;SDS011;6139;51.274;7.128;2023-04-03T01:19:41;8.33;;;7.23;;
12151;SDS011;6139;51.274;7.128;2023-04-03T01:22:25;6.80;;;6.10;;
12151;SDS011;6139;51.274;7.128;2023-04-03T01:23:34;6.90;;;6.27;;
12151;SDS011;6139;51.274;7.128;2023-04-03T01:24:43;7.83;;;5.90;;
12151;SDS011;6139;51.274;7.128;2023-04-03T01:25:47;7.90;;;5.90;;
12151;SDS011;6139;51.274;7.128;2023-04-03T01:26:49;6.67;;;5.77;;
12151;SDS011;6139;51.274;7.128;2023-04-03T01:27:51;6.47;;;5.33;;
12151;SDS011;6139;51.274;7.128;2023-04-03T01:28:53;6.63;;;5.37;;
12151;SDS011;6139;51.274;7.128;2023-04-03T01:29:56;6.17;;;5.43;;
12151;SDS011;6139;51.274;7.128;2023-04-03T01:31:00;5.57;;;4.70;;
12151;SDS011;6139;51.274;7.128;2023-04-03T01:32:11;6.77;;;4.83;;
12151;SDS011;6139;51.274;7.128;2023-04-03T01:33:12;5.90;;;4.00;;
12151;SDS011;6139;51.274;7.128;2023-04-03T01:34:14;6.17;;;3.60;;
12151;SDS011;6139;51.274;7.128;2023-04-03T01:35:15;4.43;;;3.90;;
12151;SDS011;6139;51.274;7.128;2023-04-03T01:36:18;6.47;;;4.07;;
12151;SDS011;6139;51.274;7.128;2023-04-03T01:37:21;4.67;;;3.43;;
12151;SDS011;6139;51.274;7.128;2023-04-03T01:38:23;3.40;;;3.10;;
12151;SDS011;6139;51.274;7.128;2023-04-03T01:39:25;4.90;;;3.50;;
12151;SDS011;6139;51.274;7.128;2023-04-03T01:40:27;5.03;;;3.23;;
12151;SDS011;6139;51.274;7.128;2023-04-03T01:41:28;4.20;;;3.27;;
12151;SDS011;6139;51.274;7.128;2023-04-03T01:42:38;6.00;;;3.63;;
12151;SDS011;6139;51.274;7.128;2023-04-03T01:43:39;4.00;;;3.53;;
12151;SDS011;6139;51.274;7.128;2023-04-03T01:44:41;4.27;;;3.57;;
12151;SDS011;6139;51.274;7.128;2023-04-03T01:45:42;6.33;;;3.43;;
12151;SDS011;6139;51.274;7.128;2023-04-03T01:46:45;4.67;;;3.10;;
12151;SDS011;6139;51.274;7.128;2023-04-03T01:47:48;6.87;;;3.53;;
12151;SDS011;6139;51.274;7.128;2023-04-03T01:48:50;3.70;;;3.40;;
12151;SDS011;6139;51.274;7.128;2023-04-03T01:49:52;3.90;;;3.50;;
12151;SDS011;6139;51.274;7.128;2023-04-03T01:50:53;5.43;;;3.60;;
12151;SDS011;6139;51.274;7.128;2023-04-03T01:51:55;4.67;;;3.50;;
12151;SDS011;6139;51.274;7.128;2023-04-03T01:52:56;4.27;;;3.03;;
12151;SDS011;6139;51.274;7.128;2023-04-03T01:53:58;4.80;;;3.47;;
12151;SDS011;6139;51.274;7.128;2023-04-03T01:55:00;3.97;;;3.30;;
12151;SDS011;6139;51.274;7.128;2023-04-03T01:56:03;4.30;;;3.23;;
12151;SDS011;6139;51.274;7.128;2023-04-03T01:57:05;4.30;;;3.20;;
12151;SDS011;6139;51.274;7.128;2023-04-03T01:58:08;4.07;;;3.20;;
12151;SDS011;6139;51.274;7.128;2023-04-03T01:59:10;5.13;;;3.10;;
12151;SDS011;6139;51.274;7.128;2023-04-03T02:00:12;6.10;;;3.67;;
12151;SDS011;6139;51.274;7.128;2023-04-03T02:01:14;3.83;;;3.30;;
12151;SDS011;6139;51.274;7.128;2023-04-03T02:02:17;5.63;;;3.23;;
12151;SDS011;6139;51.274;7.128;2023-04-03T02:03:20;4.33;;;3.30;;
12151;SDS011;6139;51.274;7.128;2023-04-03T02:04:22;3.93;;;3.20;;
12151;SDS011;6139;51.274;7.128;2023-04-03T02:05:23;4.23;;;3.30;;
12151;SDS011;6139;51.274;7.128;2023-04-03T02:06:25;4.90;;;3.27;;
12151;SDS011;6139;51.274;7.128;2023-04-03T02:07:26;3.53;;;3.23;;
12151;SDS011;6139;51.274;7.128;2023-04-03T02:08:28;4.03;;;3.63;;
12151;SDS011;6139;51.274;7.128;2023-04-03T02:09:29;4.47;;;3.67;;
12151;SDS011;6139;51.274;7.128;2023-04-03T02:10:31;4.07;;;3.23;;
12151;SDS011;6139;51.274;7.128;2023-04-03T02:11:32;3.40;;;3.07;;
12151;SDS011;6139;51.274;7.128;2023-04-03T02:12:34;6.13;;;3.70;;
12151;SDS011;6139;51.274;7.128;2023-04-03T02:13:35;4.53;;;2.97;;
12151;SDS011;6139;51.274;7.128;2023-04-03T02:14:37;5.60;;;3.23;;
12151;SDS011;6139;51.274;7.128;2023-04-03T02:15:38;3.47;;;3.17;;
12151;SDS011;6139;51.274;7.128;2023-04-03T02:16:40;4.37;;;3.17;;
12151;SDS011;6139;51.274;7.128;2023-04-03T02:17:41;5.37;;;3.03;;
12151;SDS011;6139;51.274;7.128;2023-04-03T02:18:44;4.07;;;3.10;;
12151;SDS011;6139;51.274;7.128;2023-04-03T02:19:45;3.33;;;3.00;;
12151;SDS011;6139;51.274;7.128;2023-04-03T02:20:47;4.83;;;2.83;;
12151;SDS011;6139;51.274;7.128;2023-04-03T02:21:48;4.30;;;2.70;;
12151;SDS011;6139;51.274;7.128;2023-04-03T02:22:50;4.63;;;3.03;;
12151;SDS011;6139;51.274;7.128;2023-04-03T02:23:52;6.27;;;3.10;;
12151;SDS011;6139;51.274;7.128;2023-04-03T02:24:54;4.57;;;2.80;;
12151;SDS011;6139;51.274;7.128;2023-04-03T02:26:02;4.97;;;2.80;;
12151;SDS011;6139;51.274;7.128;2023-04-03T02:27:06;4.40;;;3.00;;
12151;SDS011;6139;51.274;7.128;2023-04-03T02:28:07;5.67;;;3.10;;
12151;SDS011;6139;51.274;7.128;2023-04-03T02:29:09;5.87;;;2.80;;
12151;SDS011;6139;51.274;7.128;2023-04-03T02:30:10;5.13;;;3.00;;
12151;SDS011;6139;51.274;7.128;2023-04-03T02:31:13;4.30;;;2.83;;
12151;SDS011;6139;51.274;7.128;2023-04-03T02:32:19;4.20;;;3.20;;
12151;SDS011;6139;51.274;7.128;2023-04-03T02:33:21;4.20;;;3.10;;
12151;SDS011;6139;51.274;7.128;2023-04-03T02:34:25;4.73;;;3.10;;
12151;SDS011;6139;51.274;7.128;2023-04-03T02:35:27;4.33;;;2.93;;
12151;SDS011;6139;51.274;7.128;2023-04-03T02:36:30;5.77;;;3.30;;
12151;SDS011;6139;51.274;7.128;2023-04-03T02:37:34;4.37;;;2.80;;
12151;SDS011;6139;51.274;7.128;2023-04-03T02:38:35;3.53;;;2.77;;
12151;SDS011;6139;51.274;7.128;2023-04-03T02:39:37;3.47;;;3.13;;
12151;SDS011;6139;51.274;7.128;2023-04-03T02:40:38;5.70;;;3.30;;
12151;SDS011;6139;51.274;7.128;2023-04-03T02:41:40;4.23;;;3.23;;
12151;SDS011;6139;51.274;7.128;2023-04-03T02:42:47;5.30;;;3.07;;
12151;SDS011;6139;51.274;7.128;2023-04-03T02:43:49;5.07;;;3.33;;
12151;SDS011;6139;51.274;7.128;2023-04-03T02:44:50;5.57;;;3.27;;
12151;SDS011;6139;51.274;7.128;2023-04-03T02:45:52;6.67;;;3.23;;
12151;SDS011;6139;51.274;7.128;2023-04-03T02:46:53;5.23;;;3.37;;
12151;SDS011;6139;51.274;7.128;2023-04-03T02:47:55;5.47;;;3.83;;
12151;SDS011;6139;51.274;7.128;2023-04-03T02:48:56;6.07;;;3.27;;
12151;SDS011;6139;51.274;7.128;2023-04-03T02:50:00;3.93;;;3.13;;
12151;SDS011;6139;51.274;7.128;2023-04-03T02:51:01;4.33;;;3.27;;
12151;SDS011;6139;51.274;7.128;2023-04-03T02:52:03;4.57;;;3.07;;
12151;SDS011;6139;51.274;7.128;2023-04-03T02:53:04;4.50;;;2.90;;
12151;SDS011;6139;51.274;7.128;2023-04-03T02:54:06;6.23;;;3.17;;
12151;SDS011;6139;51.274;7.128;2023-04-03T02:55:12;4.27;;;3.17;;
12151;SDS011;6139;51.274;7.128;2023-04-03T02:56:16;4.37;;;3.17;;
12151;SDS011;6139;51.274;7.128;2023-04-03T02:57:18;4.83;;;3.00;;
12151;SDS011;6139;51.274;7.128;2023-04-03T02:58:20;5.47;;;3.30;;
12151;SDS011;6139;51.274;7.128;2023-04-03T02:59:22;4.77;;;3.00;;
12151;SDS011;6139;51.274;7.128;2023-04-03T03:00:24;4.57;;;3.40;;
12151;SDS011;6139;51.274;7.128;2023-04-03T03:01:25;4.80;;;3.07;;
12151;SDS011;6139;51.274;7.128;2023-04-03T03:02:28;4.23;;;3.10;;
12151;SDS011;6139;51.274;7.128;2023-04-03T03:03:29;3.47;;;3.03;;
12151;SDS011;6139;51.274;7.128;2023-04-03T03:04:31;5.13;;;3.00;;
12151;SDS011;6139;51.274;7.128;2023-04-03T03:05:34;5.37;;;3.20;;
12151;SDS011;6139;51.274;7.128;2023-04-03T03:06:36;3.30;;;2.70;;
12151;SDS011;6139;51.274;7.128;2023-04-03T03:07:37;5.47;;;3.60;;
12151;SDS011;6139;51.274;7.128;2023-04-03T03:08:39;6.27;;;3.70;;
12151;SDS011;6139;51.274;7.128;2023-04-03T03:09:40;6.63;;;3.77;;
12151;SDS011;6139;51.274;7.128;2023-04-03T03:10:42;5.07;;;3.30;;
12151;SDS011;6139;51.274;7.128;2023-04-03T03:11:44;5.77;;;3.50;;
12151;SDS011;6139;51.274;7.128;2023-04-03T03:12:46;5.63;;;3.50;;
12151;SDS011;6139;51.274;7.128;2023-04-03T03:13:48;4.93;;;3.33;;
12151;SDS011;6139;51.274;7.128;2023-04-03T03:14:49;6.10;;;3.40;;
12151;SDS011;6139;51.274;7.128;2023-04-03T03:15:52;4.43;;;3.70;;
12151;SDS011;6139;51.274;7.128;2023-04-03T03:16:53;4.60;;;3.40;;
12151;SDS011;6139;51.274;7.128;2023-04-03T03:17:55;4.47;;;3.27;;
12151;SDS011;6139;51.274;7.128;2023-04-03T03:18:56;4.47;;;3.50;;
12151;SDS011;6139;51.274;7.128;2023-04-03T03:19:58;4.47;;;3.70;;
12151;SDS011;6139;51.274;7.128;2023-04-03T03:21:02;5.90;;;3.43;;
12151;SDS011;6139;51.274;7.128;2023-04-03T03:22:05;4.13;;;3.33;;
12151;SDS011;6139;51.274;7.128;2023-04-03T03:23:06;5.47;;;3.63;;
12151;SDS011;6139;51.274;7.128;2023-04-03T03:24:08;7.17;;;3.50;;
12151;SDS011;6139;51.274;7.128;2023-04-03T03:25:09;6.17;;;3.70;;
12151;SDS011;6139;51.274;7.128;2023-04-03T03:26:11;5.40;;;3.70;;
12151;SDS011;6139;51.274;7.128;2023-04-03T03:27:12;5.73;;;3.50;;
12151;SDS011;6139;51.274;7.128;2023-04-03T03:28:16;5.77;;;3.53;;
12151;SDS011;6139;51.274;7.128;2023-04-03T03:29:17;6.43;;;3.87;;
12151;SDS011;6139;51.274;7.128;2023-04-03T03:30:19;5.30;;;3.47;;
12151;SDS011;6139;51.274;7.128;2023-04-03T03:31:21;5.93;;;3.27;;
12151;SDS011;6139;51.274;7.128;2023-04-03T03:32:23;6.07;;;3.10;;
12151;SDS011;6139;51.274;7.128;2023-04-03T03:33:24;4.73;;;3.20;;
12151;SDS011;6139;51.274;7.128;2023-04-03T03:34:27;4.87;;;3.43;;
12151;SDS011;6139;51.274;7.128;2023-04-03T03:35:28;4.63;;;3.30;;
12151;SDS011;6139;51.274;7.128;2023-04-03T03:36:31;4.33;;;3.33;;
12151;SDS011;6139;51.274;7.128;2023-04-03T03:37:33;6.73;;;3.30;;
12151;SDS011;6139;51.274;7.128;2023-04-03T03:38:34;4.53;;;3.37;;
12151;SDS011;6139;51.274;7.128;2023-04-03T03:39:36;4.83;;;3.40;;
12151;SDS011;6139;51.274;7.128;2023-04-03T03:40:37;7.17;;;3.33;;
12151;SDS011;6139;51.274;7.128;2023-04-03T03:41:40;7.80;;;3.63;;
12151;SDS011;6139;51.274;7.128;2023-04-03T03:42:42;5.50;;;3.53;;
12151;SDS011;6139;51.274;7.128;2023-04-03T03:43:44;4.97;;;3.00;;
12151;SDS011;6139;51.274;7.128;2023-04-03T03:44:46;4.03;;;3.20;;
12151;SDS011;6139;51.274;7.128;2023-04-03T03:45:49;5.53;;;3.33;;
12151;SDS011;6139;51.274;7.128;2023-04-03T03:46:51;4.33;;;3.23;;
12151;SDS011;6139;51.274;7.128;2023-04-03T03:47:53;4.30;;;3.37;;
12151;SDS011;6139;51.274;7.128;2023-04-03T03:48:55;5.33;;;3.57;;
12151;SDS011;6139;51.274;7.128;2023-04-03T03:49:57;5.83;;;3.10;;
12151;SDS011;6139;51.274;7.128;2023-04-03T03:50:58;5.70;;;3.37;;
12151;SDS011;6139;51.274;7.128;2023-04-03T03:52:05;5.90;;;3.00;;
12151;SDS011;6139;51.274;7.128;2023-04-03T03:53:06;4.73;;;3.00;;
12151;SDS011;6139;51.274;7.128;2023-04-03T03:54:09;4.83;;;3.00;;
12151;SDS011;6139;51.274;7.128;2023-04-03T03:55:11;5.90;;;3.10;;
12151;SDS011;6139;51.274;7.128;2023-04-03T03:56:13;4.50;;;3.23;;
12151;SDS011;6139;51.274;7.128;2023-04-03T03:57:16;5.53;;;3.27;;
12151;SDS011;6139;51.274;7.128;2023-04-03T03:58:17;6.53;;;3.73;;
12151;SDS011;6139;51.274;7.128;2023-04-03T03:59:19;4.50;;;3.33;;
12151;SDS011;6139;51.274;7.128;2023-04-03T04:00:20;4.53;;;3.20;;
12151;SDS011;6139;51.274;7.128;2023-04-03T04:01:27;4.43;;;3.20;;
12151;SDS011;6139;51.274;7.128;2023-04-03T04:02:30;6.60;;;3.10;;
12151;SDS011;6139;51.274;7.128;2023-04-03T04:03:31;7.07;;;3.17;;
12151;SDS011;6139;51.274;7.128;2023-04-03T04:04:33;4.70;;;3.13;;
12151;SDS011;6139;51.274;7.128;2023-04-03T04:05:34;5.20;;;3.13;;
12151;SDS011;6139;51.274;7.128;2023-04-03T04:06:37;5.47;;;3.37;;
12151;SDS011;6139;51.274;7.128;2023-04-03T04:07:42;5.43;;;3.30;;
12151;SDS011;6139;51.274;7.128;2023-04-03T04:08:44;5.50;;;3.27;;
12151;SDS011;6139;51.274;7.128;2023-04-03T04:09:48;4.40;;;3.67;;
12151;SDS011;6139;51.274;7.128;2023-04-03T04:10:49;5.23;;;3.13;;
12151;SDS011;6139;51.274;7.128;2023-04-03T04:11:52;6.20;;;3.40;;
12151;SDS011;6139;51.274;7.128;2023-04-03T04:12:53;6.93;;;3.30;;
12151;SDS011;6139;51.274;7.128;2023-04-03T04:13:58;5.77;;;3.50;;
12151;SDS011;6139;51.274;7.128;2023-04-03T04:15:02;5.00;;;3.43;;
12151;SDS011;6139;51.274;7.128;2023-04-03T04:16:04;5.67;;;3.57;;
12151;SDS011;6139;51.274;7.128;2023-04-03T04:17:07;4.33;;;3.50;;
12151;SDS011;6139;51.274;7.128;2023-04-03T04:18:10;5.37;;;3.47;;
12151;SDS011;6139;51.274;7.128;2023-04-03T04:19:14;5.97;;;3.40;;
12151;SDS011;6139;51.274;7.128;2023-04-03T04:20:18;6.83;;;3.83;;
12151;SDS011;6139;51.274;7.128;2023-04-03T04:21:21;8.70;;;3.50;;
12151;SDS011;6139;51.274;7.128;2023-04-03T04:22:24;4.77;;;3.27;;
12151;SDS011;6139;51.274;7.128;2023-04-03T04:23:29;6.63;;;3.27;;
12151;SDS011;6139;51.274;7.128;2023-04-03T04:24:32;4.97;;;3.50;;
12151;SDS011;6139;51.274;7.128;2023-04-03T04:25:35;5.27;;;3.60;;
12151;SDS011;6139;51.274;7.128;2023-04-03T04:26:36;5.30;;;3.67;;
12151;SDS011;6139;51.274;7.128;2023-04-03T04:27:39;5.40;;;3.20;;
12151;SDS011;6139;51.274;7.128;2023-04-03T04:28:40;6.13;;;3.30;;
12151;SDS011;6139;51.274;7.128;2023-04-03T04:29:42;5.83;;;3.33;;
12151;SDS011;6139;51.274;7.128;2023-04-03T04:30:44;5.87;;;3.70;;
12151;SDS011;6139;51.274;7.128;2023-04-03T04:31:47;5.97;;;3.50;;
12151;SDS011;6139;51.274;7.128;2023-04-03T04:32:48;5.67;;;3.70;;
12151;SDS011;6139;51.274;7.128;2023-04-03T04:33:51;4.33;;;3.03;;
12151;SDS011;6139;51.274;7.128;2023-04-03T04:34:52;8.00;;;3.43;;
12151;SDS011;6139;51.274;7.128;2023-04-03T04:35:54;5.80;;;3.40;;
12151;SDS011;6139;51.274;7.128;2023-04-03T04:36:56;3.73;;;3.00;;
12151;SDS011;6139;51.274;7.128;2023-04-03T04:37:59;3.47;;;3.03;;
12151;SDS011;6139;51.274;7.128;2023-04-03T04:39:01;4.03;;;3.20;;
12151;SDS011;6139;51.274;7.128;2023-04-03T04:40:05;7.00;;;3.03;;
12151;SDS011;6139;51.274;7.128;2023-04-03T04:41:08;4.97;;;3.13;;
12151;SDS011;6139;51.274;7.128;2023-04-03T04:42:09;5.90;;;3.10;;
12151;SDS011;6139;51.274;7.128;2023-04-03T04:43:14;4.87;;;3.30;;
12151;SDS011;6139;51.274;7.128;2023-04-03T04:44:16;5.80;;;3.40;;
12151;SDS011;6139;51.274;7.128;2023-04-03T04:45:19;6.23;;;3.40;;
12151;SDS011;6139;51.274;7.128;2023-04-03T04:46:21;6.63;;;3.60;;
12151;SDS011;6139;51.274;7.128;2023-04-03T04:47:28;6.43;;;2.90;;
12151;SDS011;6139;51.274;7.128;2023-04-03T04:48:30;5.87;;;3.10;;
12151;SDS011;6139;51.274;7.128;2023-04-03T04:49:32;5.80;;;3.07;;
12151;SDS011;6139;51.274;7.128;2023-04-03T04:50:33;6.03;;;2.90;;
12151;SDS011;6139;51.274;7.128;2023-04-03T04:51:35;6.30;;;3.13;;
12151;SDS011;6139;51.274;7.128;2023-04-03T04:52:36;4.53;;;2.97;;
12151;SDS011;6139;51.274;7.128;2023-04-03T04:53:40;5.50;;;3.03;;
12151;SDS011;6139;51.274;7.128;2023-04-03T04:54:45;4.23;;;2.93;;
12151;SDS011;6139;51.274;7.128;2023-04-03T04:55:47;6.20;;;2.90;;
12151;SDS011;6139;51.274;7.128;2023-04-03T04:56:48;6.23;;;3.37;;
12151;SDS011;6139;51.274;7.128;2023-04-03T04:57:50;6.13;;;3.13;;
12151;SDS011;6139;51.274;7.128;2023-04-03T04:58:54;4.53;;;2.80;;
12151;SDS011;6139;51.274;7.128;2023-04-03T04:59:55;5.20;;;3.13;;
12151;SDS011;6139;51.274;7.128;2023-04-03T05:00:58;4.03;;;3.30;;
12151;SDS011;6139;51.274;7.128;2023-04-03T05:02:00;4.80;;;3.00;;
12151;SDS011;6139;51.274;7.128;2023-04-03T05:03:02;5.73;;;3.40;;
12151;SDS011;6139;51.274;7.128;2023-04-03T05:04:03;5.43;;;3.37;;
12151;SDS011;6139;51.274;7.128;2023-04-03T05:05:06;4.60;;;2.83;;
12151;SDS011;6139;51.274;7.128;2023-04-03T05:06:08;4.33;;;3.03;;
12151;SDS011;6139;51.274;7.128;2023-04-03T05:07:11;4.43;;;2.80;;
12151;SDS011;6139;51.274;7.128;2023-04-03T05:08:12;4.93;;;3.00;;
12151;SDS011;6139;51.274;7.128;2023-04-03T05:09:16;5.13;;;3.13;;
12151;SDS011;6139;51.274;7.128;2023-04-03T05:10:20;5.33;;;2.83;;
12151;SDS011;6139;51.274;7.128;2023-04-03T05:11:22;8.10;;;3.03;;
12151;SDS011;6139;51.274;7.128;2023-04-03T05:12:25;6.53;;;2.80;;
12151;SDS011;6139;51.274;7.128;2023-04-03T05:13:32;3.83;;;2.50;;
12151;SDS011;6139;51.274;7.128;2023-04-03T05:14:34;7.33;;;2.53;;
12151;SDS011;6139;51.274;7.128;2023-04-03T05:15:38;7.93;;;3.43;;
12151;SDS011;6139;51.274;7.128;2023-04-03T05:16:41;5.23;;;2.97;;
12151;SDS011;6139;51.274;7.128;2023-04-03T05:17:42;4.60;;;2.63;;
12151;SDS011;6139;51.274;7.128;2023-04-03T05:18:47;5.10;;;2.93;;
12151;SDS011;6139;51.274;7.128;2023-04-03T05:19:52;4.37;;;2.80;;
12151;SDS011;6139;51.274;7.128;2023-04-03T05:20:56;3.37;;;2.53;;
12151;SDS011;6139;51.274;7.128;2023-04-03T05:21:59;6.10;;;2.93;;
12151;SDS011;6139;51.274;7.128;2023-04-03T05:23:03;6.20;;;2.67;;
12151;SDS011;6139;51.274;7.128;2023-04-03T05:24:06;4.43;;;2.73;;
12151;SDS011;6139;51.274;7.128;2023-04-03T05:25:11;4.43;;;2.80;;
12151;SDS011;6139;51.274;7.128;2023-04-03T05:26:17;4.80;;;2.77;;
12151;SDS011;6139;51.274;7.128;2023-04-03T05:27:22;5.33;;;2.87;;
12151;SDS011;6139;51.274;7.128;2023-04-03T05:28:27;6.20;;;2.90;;
12151;SDS011;6139;51.274;7.128;2023-04-03T05:29:28;6.47;;;2.73;;
12151;SDS011;6139;51.274;7.128;2023-04-03T05:30:32;5.07;;;2.90;;
12151;SDS011;6139;51.274;7.128;2023-04-03T05:31:36;5.93;;;2.93;;
12151;SDS011;6139;51.274;7.128;2023-04-03T05:32:38;5.57;;;3.03;;
12151;SDS011;6139;51.274;7.128;2023-04-03T05:33:47;4.40;;;3.10;;
12151;SDS011;6139;51.274;7.128;2023-04-03T05:34:51;5.30;;;2.60;;
12151;SDS011;6139;51.274;7.128;2023-04-03T05:35:53;5.53;;;3.07;;
12151;SDS011;6139;51.274;7.128;2023-04-03T05:37:00;5.53;;;2.67;;
12151;SDS011;6139;51.274;7.128;2023-04-03T05:38:04;4.67;;;3.00;;
12151;SDS011;6139;51.274;7.128;2023-04-03T05:39:06;6.93;;;3.20;;
12151;SDS011;6139;51.274;7.128;2023-04-03T05:40:11;6.03;;;2.67;;
12151;SDS011;6139;51.274;7.128;2023-04-03T05:41:17;6.63;;;3.07;;
12151;SDS011;6139;51.274;7.128;2023-04-03T05:42:20;6.53;;;3.00;;
12151;SDS011;6139;51.274;7.128;2023-04-03T05:43:22;5.20;;;2.90;;
12151;SDS011;6139;51.274;7.128;2023-04-03T05:44:24;4.33;;;2.80;;
12151;SDS011;6139;51.274;7.128;2023-04-03T05:45:28;5.20;;;2.90;;
12151;SDS011;6139;51.274;7.128;2023-04-03T05:46:29;4.90;;;2.80;;
12151;SDS011;6139;51.274;7.128;2023-04-03T05:47:33;7.00;;;3.10;;
12151;SDS011;6139;51.274;7.128;2023-04-03T05:48:34;5.70;;;2.77;;
12151;SDS011;6139;51.274;7.128;2023-04-03T05:49:37;6.60;;;3.43;;
12151;SDS011;6139;51.274;7.128;2023-04-03T05:50:41;3.90;;;2.53;;
12151;SDS011;6139;51.274;7.128;2023-04-03T05:51:47;4.47;;;3.27;;
12151;SDS011;6139;51.274;7.128;2023-04-03T05:52:53;5.50;;;2.70;;
12151;SDS011;6139;51.274;7.128;2023-04-03T05:54:03;3.83;;;2.70;;
12151;SDS011;6139;51.274;7.128;2023-04-03T05:55:09;7.23;;;2.83;;
12151;SDS011;6139;51.274;7.128;2023-04-03T05:56:11;5.87;;;2.97;;
12151;SDS011;6139;51.274;7.128;2023-04-03T05:57:15;5.03;;;3.27;;
12151;SDS011;6139;51.274;7.128;2023-04-03T05:58:18;7.93;;;3.60;;
12151;SDS011;6139;51.274;7.128;2023-04-03T05:59:21;8.73;;;3.80;;
12151;SDS011;6139;51.274;7.128;2023-04-03T06:00:25;7.60;;;3.57;;
12151;SDS011;6139;51.274;7.128;2023-04-03T06:01:34;5.40;;;3.63;;
12151;SDS011;6139;51.274;7.128;2023-04-03T06:02:36;7.03;;;3.90;;
12151;SDS011;6139;51.274;7.128;2023-04-03T06:03:37;9.53;;;3.37;;
12151;SDS011;6139;51.274;7.128;2023-04-03T06:04:41;6.47;;;3.13;;
12151;SDS011;6139;51.274;7.128;2023-04-03T06:05:43;7.00;;;3.20;;
12151;SDS011;6139;51.274;7.128;2023-04-03T06:06:46;6.33;;;3.13;;
12151;SDS011;6139;51.274;7.128;2023-04-03T06:07:51;6.93;;;3.20;;
12151;SDS011;6139;51.274;7.128;2023-04-03T06:08:53;5.60;;;3.00;;
12151;SDS011;6139;51.274;7.128;2023-04-03T06:09:56;7.77;;;3.20;;
12151;SDS011;6139;51.274;7.128;2023-04-03T06:10:57;6.60;;;3.20;;
12151;SDS011;6139;51.274;7.128;2023-04-03T06:12:01;6.20;;;3.20;;
12151;SDS011;6139;51.274;7.128;2023-04-03T06:13:05;6.10;;;3.23;;
12151;SDS011;6139;51.274;7.128;2023-04-03T06:14:07;4.30;;;2.63;;
12151;SDS011;6139;51.274;7.128;2023-04-03T06:15:09;5.30;;;2.90;;
12151;SDS011;6139;51.274;7.128;2023-04-03T06:16:14;9.57;;;3.57;;
12151;SDS011;6139;51.274;7.128;2023-04-03T06:17:18;5.30;;;3.30;;
12151;SDS011;6139;51.274;7.128;2023-04-03T06:18:19;5.47;;;3.10;;
12151;SDS011;6139;51.274;7.128;2023-04-03T06:19:21;6.40;;;2.73;;
12151;SDS011;6139;51.274;7.128;2023-04-03T06:20:26;5.07;;;2.67;;
12151;SDS011;6139;51.274;7.128;2023-04-03T06:21:28;5.43;;;2.70;;
12151;SDS011;6139;51.274;7.128;2023-04-03T06:22:29;4.57;;;2.80;;
12151;SDS011;6139;51.274;7.128;2023-04-03T06:23:31;6.50;;;3.23;;
12151;SDS011;6139;51.274;7.128;2023-04-03T06:24:33;6.83;;;2.73;;
12151;SDS011;6139;51.274;7.128;2023-04-03T06:25:35;8.03;;;2.93;;
12151;SDS011;6139;51.274;7.128;2023-04-03T06:26:36;6.10;;;3.10;;